Anglian Lady — VOLP — position and weather

sailwx.info

Track history (hours):
 
Tides and Currents Weather Stations Pressure Air Temp Water Temp Dewpoint Dewpoint Depression Visibility Wind Speed Wind Dir Waves Ship Positions

Anglian Lady

Last reported at 2016-Apr-27 19:33 UTC. Time now 2016-Apr-29 10:04 UTC.
Position N 45°01' W 085°56'.

Length 32 m.

Type: Tug. MMSI: 316002238.

Date/timePositionNaut miles runAvg speedWind from/ knotsBaromVisibWave heightAir tempDewpointWater temp
2016-Apr-27 19:33N 45°01' W 085°56'6 5.7
2016-Apr-27 18:33N 45°06' W 085°52'6 5.8
2016-Apr-27 17:33N 45°11' W 085°48'6 5.7
2016-Apr-27 16:33N 45°15' W 085°43'6 5.8
2016-Apr-27 15:33N 45°20' W 085°39'6 6.0
2016-Apr-27 14:33N 45°25' W 085°34'6 5.7
2016-Apr-27 13:33N 45°30' W 085°29'5 4.8
2016-Apr-27 12:33N 45°33' W 085°25'7 7.4
2016-Apr-27 11:33N 45°39' W 085°18'7 7.2
2016-Apr-27 10:33N 45°45' W 085°11'6 6.2
2016-Apr-27 09:33N 45°50' W 085°06'7 6.9
2016-Apr-27 08:33N 45°49' W 084°57'7 6.8
2016-Apr-27 07:33N 45°49' W 084°47'6 6.1
2016-Apr-27 06:33N 45°50' W 084°38'7 6.9
2016-Apr-27 05:33N 45°52' W 084°29'8 7.4
2016-Apr-27 04:32N 45°53' W 084°18'  
2016-Apr-22 16:27N 42°32' W 080°00'49 7.1
2016-Apr-22 09:33N 43°06' W 079°12'2 2.0
2016-Apr-22 08:33N 43°08' W 079°12'0 0.2
2016-Apr-22 07:33N 43°08' W 079°12'1 1.2
2016-Apr-22 06:33N 43°09' W 079°12'2 2.3
2016-Apr-22 05:33N 43°12' W 079°12'2 1.5
2016-Apr-22 04:33N 43°13' W 079°13'4 3.6
2016-Apr-22 03:33N 43°16' W 079°15'9 9.1
2016-Apr-22 02:33N 43°17' W 079°28'14 0.9
2016-Apr-21 11:27N 43°16' W 079°47'0 0.0
2016-Apr-21 00:04N 43°16' W 079°47'7 1.3
2016-Apr-20 18:33N 43°18' W 079°38'8 8.1
2016-Apr-20 17:33N 43°17' W 079°27'8 8.1
2016-Apr-20 16:33N 43°16' W 079°16'4 3.6
2016-Apr-20 15:33N 43°13' W 079°13'2 1.5
2016-Apr-20 14:33N 43°12' W 079°12'2 2.3
2016-Apr-20 13:33N 43°09' W 079°12'1 1.2
2016-Apr-20 12:33N 43°08' W 079°12'0 0.4
2016-Apr-20 11:33N 43°08' W 079°12'2 2.0
2016-Apr-20 10:33N 43°06' W 079°12'169 5.8
2016-Apr-19 05:26N 42°22' W 082°54'6 7.3
2016-Apr-19 04:33N 42°26' W 082°48'8 8.1
2016-Apr-19 03:33N 42°32' W 082°40'9 8.7
2016-Apr-19 02:33N 42°37' W 082°31'  
Track history (hours):
 
Tides and Currents Weather Stations Pressure Air Temp Water Temp Dewpoint Dewpoint Depression Visibility Wind Speed Wind Dir Waves Ship Positions

Anglian Lady

Last reported at 2016-Apr-27 19:33 UTC. Time now 2016-Apr-29 10:04 UTC.
Position N 45°01' W 085°56'.

Length 32 m.

Type: Tug. MMSI: 316002238.

Date/timePositionNaut miles runAvg speedWind from/ knotsBaromVisibWave heightAir tempDewpointWater temp
2016-Apr-27 19:33N 45°01' W 085°56'6 5.7
2016-Apr-27 18:33N 45°06' W 085°52'6 5.8
2016-Apr-27 17:33N 45°11' W 085°48'6 5.7
2016-Apr-27 16:33N 45°15' W 085°43'6 5.8
2016-Apr-27 15:33N 45°20' W 085°39'6 6.0
2016-Apr-27 14:33N 45°25' W 085°34'6 5.7
2016-Apr-27 13:33N 45°30' W 085°29'5 4.8
2016-Apr-27 12:33N 45°33' W 085°25'7 7.4
2016-Apr-27 11:33N 45°39' W 085°18'7 7.2
2016-Apr-27 10:33N 45°45' W 085°11'6 6.2
2016-Apr-27 09:33N 45°50' W 085°06'7 6.9
2016-Apr-27 08:33N 45°49' W 084°57'7 6.8
2016-Apr-27 07:33N 45°49' W 084°47'6 6.1
2016-Apr-27 06:33N 45°50' W 084°38'7 6.9
2016-Apr-27 05:33N 45°52' W 084°29'8 7.4
2016-Apr-27 04:32N 45°53' W 084°18'  
2016-Apr-22 16:27N 42°32' W 080°00'49 7.1
2016-Apr-22 09:33N 43°06' W 079°12'2 2.0
2016-Apr-22 08:33N 43°08' W 079°12'0 0.2
2016-Apr-22 07:33N 43°08' W 079°12'1 1.2
2016-Apr-22 06:33N 43°09' W 079°12'2 2.3
2016-Apr-22 05:33N 43°12' W 079°12'2 1.5
2016-Apr-22 04:33N 43°13' W 079°13'4 3.6
2016-Apr-22 03:33N 43°16' W 079°15'9 9.1
2016-Apr-22 02:33N 43°17' W 079°28'14 0.9
2016-Apr-21 11:27N 43°16' W 079°47'0 0.0
2016-Apr-21 00:04N 43°16' W 079°47'7 1.3
2016-Apr-20 18:33N 43°18' W 079°38'8 8.1
2016-Apr-20 17:33N 43°17' W 079°27'8 8.1
2016-Apr-20 16:33N 43°16' W 079°16'4 3.6
2016-Apr-20 15:33N 43°13' W 079°13'2 1.5
2016-Apr-20 14:33N 43°12' W 079°12'2 2.3
2016-Apr-20 13:33N 43°09' W 079°12'1 1.2
2016-Apr-20 12:33N 43°08' W 079°12'0 0.4
2016-Apr-20 11:33N 43°08' W 079°12'2 2.0
2016-Apr-20 10:33N 43°06' W 079°12'169 5.8
2016-Apr-19 05:26N 42°22' W 082°54'6 7.3
2016-Apr-19 04:33N 42°26' W 082°48'8 8.1
2016-Apr-19 03:33N 42°32' W 082°40'9 8.7
2016-Apr-19 02:33N 42°37' W 082°31'  

Dump ship's entire track history